sensor_id;sensor_type;location;lat;lon;timestamp;P1;durP1;ratioP1;P2;durP2;ratioP2
5795;SDS011;2924;51.458;7.046;2022-10-17T00:00:29;15.17;;;11.13;;
5795;SDS011;2924;51.458;7.046;2022-10-17T00:02:55;13.53;;;10.13;;
5795;SDS011;2924;51.458;7.046;2022-10-17T00:05:21;15.57;;;10.73;;
5795;SDS011;2924;51.458;7.046;2022-10-17T00:07:47;26.57;;;10.80;;
5795;SDS011;2924;51.458;7.046;2022-10-17T00:10:12;15.67;;;11.37;;
5795;SDS011;2924;51.458;7.046;2022-10-17T00:12:38;12.07;;;10.80;;
5795;SDS011;2924;51.458;7.046;2022-10-17T00:15:05;17.03;;;11.20;;
5795;SDS011;2924;51.458;7.046;2022-10-17T00:17:31;13.53;;;10.73;;
5795;SDS011;2924;51.458;7.046;2022-10-17T00:19:58;16.93;;;10.50;;
5795;SDS011;2924;51.458;7.046;2022-10-17T00:22:25;15.93;;;11.43;;
5795;SDS011;2924;51.458;7.046;2022-10-17T00:24:51;14.07;;;10.23;;
5795;SDS011;2924;51.458;7.046;2022-10-17T00:27:17;15.60;;;11.47;;
5795;SDS011;2924;51.458;7.046;2022-10-17T00:29:46;13.73;;;10.77;;
5795;SDS011;2924;51.458;7.046;2022-10-17T00:32:12;13.47;;;11.50;;
5795;SDS011;2924;51.458;7.046;2022-10-17T00:34:38;12.00;;;10.77;;
5795;SDS011;2924;51.458;7.046;2022-10-17T00:37:04;17.80;;;11.33;;
5795;SDS011;2924;51.458;7.046;2022-10-17T00:39:29;10.17;;;9.20;;
5795;SDS011;2924;51.458;7.046;2022-10-17T00:41:55;12.93;;;9.50;;
5795;SDS011;2924;51.458;7.046;2022-10-17T00:46:56;15.53;;;10.73;;
5795;SDS011;2924;51.458;7.046;2022-10-17T00:49:23;17.77;;;10.80;;
5795;SDS011;2924;51.458;7.046;2022-10-17T00:51:53;14.20;;;11.37;;
5795;SDS011;2924;51.458;7.046;2022-10-17T00:54:22;11.60;;;10.07;;
5795;SDS011;2924;51.458;7.046;2022-10-17T00:56:52;16.63;;;10.03;;
5795;SDS011;2924;51.458;7.046;2022-10-17T00:59:19;18.13;;;9.70;;
5795;SDS011;2924;51.458;7.046;2022-10-17T01:01:56;12.40;;;9.80;;
5795;SDS011;2924;51.458;7.046;2022-10-17T01:04:25;19.70;;;9.23;;
5795;SDS011;2924;51.458;7.046;2022-10-17T01:06:51;10.53;;;8.80;;
5795;SDS011;2924;51.458;7.046;2022-10-17T01:09:17;15.43;;;9.47;;
5795;SDS011;2924;51.458;7.046;2022-10-17T01:11:49;10.23;;;9.17;;
5795;SDS011;2924;51.458;7.046;2022-10-17T01:26:08;19.43;;;10.10;;
5795;SDS011;2924;51.458;7.046;2022-10-17T01:28:50;17.53;;;9.93;;
5795;SDS011;2924;51.458;7.046;2022-10-17T01:37:19;14.03;;;8.00;;
5795;SDS011;2924;51.458;7.046;2022-10-17T01:39:53;14.83;;;7.93;;
5795;SDS011;2924;51.458;7.046;2022-10-17T01:42:32;15.27;;;7.17;;
5795;SDS011;2924;51.458;7.046;2022-10-17T01:45:05;9.60;;;7.80;;
5795;SDS011;2924;51.458;7.046;2022-10-17T01:47:38;10.53;;;7.60;;
5795;SDS011;2924;51.458;7.046;2022-10-17T01:50:06;11.80;;;6.70;;
5795;SDS011;2924;51.458;7.046;2022-10-17T01:52:40;15.47;;;6.60;;
5795;SDS011;2924;51.458;7.046;2022-10-17T01:55:13;11.60;;;6.47;;
5795;SDS011;2924;51.458;7.046;2022-10-17T01:57:49;16.77;;;7.67;;
5795;SDS011;2924;51.458;7.046;2022-10-17T02:00:20;12.53;;;6.40;;
5795;SDS011;2924;51.458;7.046;2022-10-17T02:02:48;11.00;;;6.50;;
5795;SDS011;2924;51.458;7.046;2022-10-17T02:05:19;8.90;;;8.00;;
5795;SDS011;2924;51.458;7.046;2022-10-17T02:07:48;6.80;;;6.20;;
5795;SDS011;2924;51.458;7.046;2022-10-17T02:10:35;10.03;;;5.17;;
5795;SDS011;2924;51.458;7.046;2022-10-17T02:13:43;5.77;;;5.27;;
5795;SDS011;2924;51.458;7.046;2022-10-17T02:23:06;8.10;;;6.23;;
5795;SDS011;2924;51.458;7.046;2022-10-17T02:28:26;7.87;;;5.43;;
5795;SDS011;2924;51.458;7.046;2022-10-17T02:30:43;5.23;;;4.50;;
5795;SDS011;2924;51.458;7.046;2022-10-17T02:33:36;8.63;;;5.20;;
5795;SDS011;2924;51.458;7.046;2022-10-17T02:36:11;7.60;;;5.87;;
5795;SDS011;2924;51.458;7.046;2022-10-17T02:38:42;9.90;;;4.83;;
5795;SDS011;2924;51.458;7.046;2022-10-17T02:41:10;5.60;;;5.10;;
5795;SDS011;2924;51.458;7.046;2022-10-17T02:43:39;7.87;;;5.20;;
5795;SDS011;2924;51.458;7.046;2022-10-17T02:46:09;9.33;;;5.40;;
5795;SDS011;2924;51.458;7.046;2022-10-17T02:48:37;15.30;;;6.10;;
5795;SDS011;2924;51.458;7.046;2022-10-17T02:51:17;14.57;;;5.60;;
5795;SDS011;2924;51.458;7.046;2022-10-17T02:53:47;15.93;;;5.30;;
5795;SDS011;2924;51.458;7.046;2022-10-17T02:56:19;6.80;;;5.00;;
5795;SDS011;2924;51.458;7.046;2022-10-17T02:58:47;6.50;;;5.40;;
5795;SDS011;2924;51.458;7.046;2022-10-17T03:01:18;8.43;;;4.80;;
5795;SDS011;2924;51.458;7.046;2022-10-17T03:03:44;7.93;;;4.57;;
5795;SDS011;2924;51.458;7.046;2022-10-17T03:06:10;6.07;;;4.73;;
5795;SDS011;2924;51.458;7.046;2022-10-17T03:08:36;12.80;;;4.27;;
5795;SDS011;2924;51.458;7.046;2022-10-17T03:11:02;4.30;;;3.90;;
5795;SDS011;2924;51.458;7.046;2022-10-17T03:13:28;4.60;;;4.30;;
5795;SDS011;2924;51.458;7.046;2022-10-17T03:15:54;12.30;;;4.60;;
5795;SDS011;2924;51.458;7.046;2022-10-17T03:18:21;4.50;;;4.10;;
5795;SDS011;2924;51.458;7.046;2022-10-17T03:20:46;9.73;;;4.07;;
5795;SDS011;2924;51.458;7.046;2022-10-17T03:23:12;7.47;;;4.33;;
5795;SDS011;2924;51.458;7.046;2022-10-17T03:25:38;6.23;;;4.30;;
5795;SDS011;2924;51.458;7.046;2022-10-17T03:28:03;6.23;;;4.47;;
5795;SDS011;2924;51.458;7.046;2022-10-17T03:30:30;6.37;;;4.17;;
5795;SDS011;2924;51.458;7.046;2022-10-17T03:32:56;7.40;;;4.10;;
5795;SDS011;2924;51.458;7.046;2022-10-17T03:35:23;6.80;;;4.33;;
5795;SDS011;2924;51.458;7.046;2022-10-17T03:37:49;7.13;;;3.90;;
5795;SDS011;2924;51.458;7.046;2022-10-17T03:40:14;9.50;;;4.07;;
5795;SDS011;2924;51.458;7.046;2022-10-17T03:42:40;4.23;;;3.83;;
5795;SDS011;2924;51.458;7.046;2022-10-17T03:45:06;10.20;;;5.10;;
5795;SDS011;2924;51.458;7.046;2022-10-17T03:47:32;7.53;;;3.70;;
5795;SDS011;2924;51.458;7.046;2022-10-17T03:49:57;7.63;;;3.77;;
5795;SDS011;2924;51.458;7.046;2022-10-17T03:52:23;5.20;;;4.10;;
5795;SDS011;2924;51.458;7.046;2022-10-17T03:54:49;10.07;;;4.30;;
5795;SDS011;2924;51.458;7.046;2022-10-17T03:57:15;4.20;;;3.40;;
5795;SDS011;2924;51.458;7.046;2022-10-17T03:59:42;7.63;;;4.10;;
5795;SDS011;2924;51.458;7.046;2022-10-17T04:02:07;8.20;;;4.17;;
5795;SDS011;2924;51.458;7.046;2022-10-17T04:04:33;6.80;;;4.47;;
5795;SDS011;2924;51.458;7.046;2022-10-17T04:06:59;8.20;;;4.20;;
5795;SDS011;2924;51.458;7.046;2022-10-17T04:09:25;6.07;;;4.10;;
5795;SDS011;2924;51.458;7.046;2022-10-17T04:11:50;5.03;;;3.90;;
5795;SDS011;2924;51.458;7.046;2022-10-17T04:14:16;8.00;;;4.10;;
5795;SDS011;2924;51.458;7.046;2022-10-17T04:16:42;6.23;;;4.13;;
5795;SDS011;2924;51.458;7.046;2022-10-17T04:19:09;6.53;;;3.93;;
5795;SDS011;2924;51.458;7.046;2022-10-17T04:21:37;3.60;;;3.40;;
5795;SDS011;2924;51.458;7.046;2022-10-17T04:24:03;4.43;;;3.67;;
5795;SDS011;2924;51.458;7.046;2022-10-17T04:26:29;10.57;;;4.10;;
5795;SDS011;2924;51.458;7.046;2022-10-17T04:28:54;6.40;;;3.47;;
5795;SDS011;2924;51.458;7.046;2022-10-17T04:31:20;6.00;;;3.57;;
5795;SDS011;2924;51.458;7.046;2022-10-17T04:33:46;6.20;;;3.80;;
5795;SDS011;2924;51.458;7.046;2022-10-17T04:36:14;3.37;;;3.07;;
5795;SDS011;2924;51.458;7.046;2022-10-17T04:38:41;4.40;;;3.00;;
5795;SDS011;2924;51.458;7.046;2022-10-17T04:41:09;10.90;;;3.40;;
5795;SDS011;2924;51.458;7.046;2022-10-17T04:43:37;6.70;;;3.63;;
5795;SDS011;2924;51.458;7.046;2022-10-17T04:46:07;12.23;;;4.03;;
5795;SDS011;2924;51.458;7.046;2022-10-17T04:48:34;4.43;;;3.40;;
5795;SDS011;2924;51.458;7.046;2022-10-17T04:51:01;8.03;;;3.90;;
5795;SDS011;2924;51.458;7.046;2022-10-17T04:53:35;9.13;;;3.47;;
5795;SDS011;2924;51.458;7.046;2022-10-17T04:56:06;5.10;;;3.30;;
5795;SDS011;2924;51.458;7.046;2022-10-17T04:58:33;11.10;;;3.80;;
5795;SDS011;2924;51.458;7.046;2022-10-17T05:01:03;6.70;;;3.87;;
5795;SDS011;2924;51.458;7.046;2022-10-17T05:03:29;4.27;;;3.43;;
5795;SDS011;2924;51.458;7.046;2022-10-17T05:05:55;5.53;;;3.40;;
5795;SDS011;2924;51.458;7.046;2022-10-17T05:08:20;3.43;;;3.07;;
5795;SDS011;2924;51.458;7.046;2022-10-17T05:10:46;3.63;;;3.33;;
5795;SDS011;2924;51.458;7.046;2022-10-17T05:13:11;8.93;;;3.40;;
5795;SDS011;2924;51.458;7.046;2022-10-17T05:15:37;6.73;;;3.70;;
5795;SDS011;2924;51.458;7.046;2022-10-17T05:18:04;3.80;;;3.23;;
5795;SDS011;2924;51.458;7.046;2022-10-17T05:20:30;3.67;;;3.10;;
5795;SDS011;2924;51.458;7.046;2022-10-17T05:22:59;12.70;;;3.57;;
5795;SDS011;2924;51.458;7.046;2022-10-17T05:25:25;8.33;;;3.30;;
5795;SDS011;2924;51.458;7.046;2022-10-17T05:27:51;6.67;;;3.57;;
5795;SDS011;2924;51.458;7.046;2022-10-17T05:30:17;6.20;;;3.23;;
5795;SDS011;2924;51.458;7.046;2022-10-17T05:32:42;9.33;;;3.53;;
5795;SDS011;2924;51.458;7.046;2022-10-17T05:35:08;13.80;;;3.87;;
5795;SDS011;2924;51.458;7.046;2022-10-17T05:37:34;3.30;;;3.10;;
5795;SDS011;2924;51.458;7.046;2022-10-17T05:39:59;11.60;;;4.10;;
5795;SDS011;2924;51.458;7.046;2022-10-17T05:42:25;6.53;;;3.83;;
5795;SDS011;2924;51.458;7.046;2022-10-17T05:44:51;7.97;;;3.73;;
5795;SDS011;2924;51.458;7.046;2022-10-17T05:47:17;7.23;;;4.07;;
5795;SDS011;2924;51.458;7.046;2022-10-17T05:49:42;6.40;;;3.87;;
5795;SDS011;2924;51.458;7.046;2022-10-17T05:52:08;4.87;;;2.43;;
5795;SDS011;2924;51.458;7.046;2022-10-17T05:54:33;7.03;;;3.40;;
5795;SDS011;2924;51.458;7.046;2022-10-17T05:56:59;8.43;;;3.33;;
5795;SDS011;2924;51.458;7.046;2022-10-17T05:59:25;3.30;;;3.00;;
5795;SDS011;2924;51.458;7.046;2022-10-17T06:01:51;7.53;;;3.20;;
5795;SDS011;2924;51.458;7.046;2022-10-17T06:04:18;4.70;;;3.40;;
5795;SDS011;2924;51.458;7.046;2022-10-17T06:06:44;4.53;;;3.20;;
5795;SDS011;2924;51.458;7.046;2022-10-17T06:09:10;4.53;;;3.30;;
5795;SDS011;2924;51.458;7.046;2022-10-17T06:11:35;5.40;;;3.23;;
5795;SDS011;2924;51.458;7.046;2022-10-17T06:14:01;3.40;;;3.20;;
5795;SDS011;2924;51.458;7.046;2022-10-17T06:16:27;10.43;;;3.77;;
5795;SDS011;2924;51.458;7.046;2022-10-17T06:18:53;7.73;;;3.37;;
5795;SDS011;2924;51.458;7.046;2022-10-17T06:21:22;7.10;;;3.20;;
5795;SDS011;2924;51.458;7.046;2022-10-17T06:23:49;3.40;;;2.90;;
5795;SDS011;2924;51.458;7.046;2022-10-17T06:26:16;6.20;;;3.07;;
5795;SDS011;2924;51.458;7.046;2022-10-17T06:28:42;4.60;;;3.37;;
5795;SDS011;2924;51.458;7.046;2022-10-17T06:31:12;10.13;;;3.23;;
5795;SDS011;2924;51.458;7.046;2022-10-17T06:33:39;5.97;;;3.33;;
5795;SDS011;2924;51.458;7.046;2022-10-17T06:36:05;5.77;;;3.70;;
5795;SDS011;2924;51.458;7.046;2022-10-17T06:38:33;11.63;;;3.23;;
5795;SDS011;2924;51.458;7.046;2022-10-17T06:41:06;9.53;;;3.47;;
5795;SDS011;2924;51.458;7.046;2022-10-17T06:43:38;14.83;;;3.67;;
5795;SDS011;2924;51.458;7.046;2022-10-17T06:46:07;3.87;;;3.27;;
5795;SDS011;2924;51.458;7.046;2022-10-17T06:48:33;5.30;;;3.23;;
5795;SDS011;2924;51.458;7.046;2022-10-17T06:50:59;3.17;;;2.97;;
5795;SDS011;2924;51.458;7.046;2022-10-17T06:53:26;3.67;;;3.23;;
5795;SDS011;2924;51.458;7.046;2022-10-17T06:55:53;11.90;;;2.77;;
5795;SDS011;2924;51.458;7.046;2022-10-17T06:58:19;7.70;;;3.03;;
5795;SDS011;2924;51.458;7.046;2022-10-17T07:00:45;11.63;;;3.13;;
5795;SDS011;2924;51.458;7.046;2022-10-17T07:03:11;3.57;;;2.93;;
5795;SDS011;2924;51.458;7.046;2022-10-17T07:05:36;9.23;;;3.67;;
5795;SDS011;2924;51.458;7.046;2022-10-17T07:08:05;8.03;;;2.90;;
5795;SDS011;2924;51.458;7.046;2022-10-17T07:10:31;7.13;;;3.60;;
5795;SDS011;2924;51.458;7.046;2022-10-17T07:13:02;6.17;;;3.23;;
5795;SDS011;2924;51.458;7.046;2022-10-17T07:15:28;6.00;;;3.50;;
5795;SDS011;2924;51.458;7.046;2022-10-17T07:17:53;10.30;;;3.20;;
5795;SDS011;2924;51.458;7.046;2022-10-17T07:20:19;4.43;;;3.33;;
5795;SDS011;2924;51.458;7.046;2022-10-17T07:22:45;3.30;;;2.93;;
5795;SDS011;2924;51.458;7.046;2022-10-17T07:25:10;7.90;;;3.27;;
5795;SDS011;2924;51.458;7.046;2022-10-17T07:27:36;8.00;;;3.00;;
5795;SDS011;2924;51.458;7.046;2022-10-17T07:30:02;10.23;;;2.90;;
5795;SDS011;2924;51.458;7.046;2022-10-17T07:32:27;9.43;;;3.40;;
5795;SDS011;2924;51.458;7.046;2022-10-17T07:34:53;9.60;;;2.97;;
5795;SDS011;2924;51.458;7.046;2022-10-17T07:37:19;11.77;;;3.27;;
5795;SDS011;2924;51.458;7.046;2022-10-17T07:39:44;18.33;;;3.23;;
5795;SDS011;2924;51.458;7.046;2022-10-17T07:42:10;6.30;;;2.90;;
5795;SDS011;2924;51.458;7.046;2022-10-17T07:44:36;9.33;;;3.47;;
5795;SDS011;2924;51.458;7.046;2022-10-17T07:47:01;10.50;;;3.73;;
5795;SDS011;2924;51.458;7.046;2022-10-17T07:49:27;3.30;;;2.90;;
5795;SDS011;2924;51.458;7.046;2022-10-17T07:51:53;7.50;;;3.30;;
5795;SDS011;2924;51.458;7.046;2022-10-17T07:54:18;4.40;;;2.40;;
5795;SDS011;2924;51.458;7.046;2022-10-17T07:56:44;7.93;;;3.17;;
5795;SDS011;2924;51.458;7.046;2022-10-17T07:59:14;11.97;;;3.33;;
5795;SDS011;2924;51.458;7.046;2022-10-17T08:01:43;3.63;;;2.70;;
5795;SDS011;2924;51.458;7.046;2022-10-17T08:04:09;7.70;;;2.50;;
5795;SDS011;2924;51.458;7.046;2022-10-17T08:06:34;8.30;;;3.03;;
5795;SDS011;2924;51.458;7.046;2022-10-17T08:09:00;23.17;;;3.63;;
5795;SDS011;2924;51.458;7.046;2022-10-17T08:11:26;10.33;;;3.23;;
5795;SDS011;2924;51.458;7.046;2022-10-17T08:13:51;3.77;;;2.40;;
5795;SDS011;2924;51.458;7.046;2022-10-17T08:16:17;6.13;;;2.60;;
5795;SDS011;2924;51.458;7.046;2022-10-17T08:18:43;5.70;;;2.93;;
5795;SDS011;2924;51.458;7.046;2022-10-17T08:21:09;3.93;;;2.70;;
5795;SDS011;2924;51.458;7.046;2022-10-17T08:23:37;3.83;;;2.57;;
5795;SDS011;2924;51.458;7.046;2022-10-17T08:26:03;15.10;;;2.90;;
5795;SDS011;2924;51.458;7.046;2022-10-17T08:28:33;11.17;;;3.10;;
5795;SDS011;2924;51.458;7.046;2022-10-17T08:31:03;16.17;;;3.40;;
5795;SDS011;2924;51.458;7.046;2022-10-17T08:33:30;2.97;;;2.33;;
5795;SDS011;2924;51.458;7.046;2022-10-17T08:35:57;8.40;;;2.73;;
5795;SDS011;2924;51.458;7.046;2022-10-17T08:38:24;5.93;;;2.70;;
5795;SDS011;2924;51.458;7.046;2022-10-17T08:40:50;8.27;;;2.30;;
5795;SDS011;2924;51.458;7.046;2022-10-17T08:46:04;6.40;;;2.63;;
5795;SDS011;2924;51.458;7.046;2022-10-17T08:48:33;4.70;;;2.30;;
5795;SDS011;2924;51.458;7.046;2022-10-17T08:51:23;14.33;;;2.30;;
5795;SDS011;2924;51.458;7.046;2022-10-17T08:54:05;2.17;;;1.97;;
5795;SDS011;2924;51.458;7.046;2022-10-17T08:56:49;3.90;;;2.30;;
5795;SDS011;2924;51.458;7.046;2022-10-17T08:59:19;6.70;;;3.30;;
5795;SDS011;2924;51.458;7.046;2022-10-17T09:04:45;7.00;;;3.07;;
5795;SDS011;2924;51.458;7.046;2022-10-17T09:07:38;8.80;;;2.40;;
5795;SDS011;2924;51.458;7.046;2022-10-17T09:13:25;8.50;;;2.73;;
5795;SDS011;2924;51.458;7.046;2022-10-17T09:16:18;9.37;;;2.73;;
5795;SDS011;2924;51.458;7.046;2022-10-17T09:19:30;7.90;;;2.93;;
5795;SDS011;2924;51.458;7.046;2022-10-17T09:22:02;5.23;;;2.23;;
5795;SDS011;2924;51.458;7.046;2022-10-17T09:24:59;4.30;;;3.00;;
5795;SDS011;2924;51.458;7.046;2022-10-17T09:27:39;11.63;;;3.63;;
5795;SDS011;2924;51.458;7.046;2022-10-17T09:30:15;3.43;;;1.90;;
5795;SDS011;2924;51.458;7.046;2022-10-17T09:32:47;2.60;;;2.40;;
5795;SDS011;2924;51.458;7.046;2022-10-17T09:35:13;17.00;;;3.10;;
5795;SDS011;2924;51.458;7.046;2022-10-17T09:37:39;9.17;;;2.60;;
5795;SDS011;2924;51.458;7.046;2022-10-17T09:40:06;10.07;;;3.07;;
5795;SDS011;2924;51.458;7.046;2022-10-17T09:42:37;15.67;;;2.47;;
5795;SDS011;2924;51.458;7.046;2022-10-17T09:45:15;12.17;;;2.50;;
5795;SDS011;2924;51.458;7.046;2022-10-17T09:50:18;13.50;;;4.03;;
5795;SDS011;2924;51.458;7.046;2022-10-17T09:52:45;12.57;;;2.70;;
5795;SDS011;2924;51.458;7.046;2022-10-17T09:55:17;7.30;;;3.20;;
5795;SDS011;2924;51.458;7.046;2022-10-17T09:57:52;19.80;;;2.83;;
5795;SDS011;2924;51.458;7.046;2022-10-17T10:00:24;17.40;;;2.83;;
5795;SDS011;2924;51.458;7.046;2022-10-17T10:05:39;10.23;;;3.00;;
5795;SDS011;2924;51.458;7.046;2022-10-17T10:10:39;14.43;;;3.33;;
5795;SDS011;2924;51.458;7.046;2022-10-17T10:15:39;6.83;;;2.20;;
5795;SDS011;2924;51.458;7.046;2022-10-17T10:18:27;10.63;;;2.77;;
5795;SDS011;2924;51.458;7.046;2022-10-17T10:23:34;4.83;;;2.90;;
5795;SDS011;2924;51.458;7.046;2022-10-17T10:26:17;3.70;;;2.40;;
5795;SDS011;2924;51.458;7.046;2022-10-17T10:28:50;7.07;;;3.00;;
5795;SDS011;2924;51.458;7.046;2022-10-17T10:31:24;4.23;;;2.90;;
5795;SDS011;2924;51.458;7.046;2022-10-17T10:33:52;7.63;;;2.83;;
5795;SDS011;2924;51.458;7.046;2022-10-17T10:36:18;6.10;;;3.00;;
5795;SDS011;2924;51.458;7.046;2022-10-17T10:38:50;11.53;;;2.83;;
5795;SDS011;2924;51.458;7.046;2022-10-17T10:41:21;7.03;;;2.50;;
5795;SDS011;2924;51.458;7.046;2022-10-17T10:43:48;8.70;;;2.90;;
5795;SDS011;2924;51.458;7.046;2022-10-17T10:46:17;9.63;;;2.90;;
5795;SDS011;2924;51.458;7.046;2022-10-17T10:48:52;5.23;;;2.53;;
5795;SDS011;2924;51.458;7.046;2022-10-17T10:51:31;10.30;;;2.87;;
5795;SDS011;2924;51.458;7.046;2022-10-17T10:54:13;8.00;;;2.80;;
5795;SDS011;2924;51.458;7.046;2022-10-17T10:56:48;4.23;;;3.20;;
5795;SDS011;2924;51.458;7.046;2022-10-17T10:59:19;8.03;;;2.70;;
5795;SDS011;2924;51.458;7.046;2022-10-17T11:01:53;5.60;;;2.70;;
5795;SDS011;2924;51.458;7.046;2022-10-17T11:04:26;4.20;;;2.80;;
5795;SDS011;2924;51.458;7.046;2022-10-17T11:07:00;22.47;;;3.10;;
5795;SDS011;2924;51.458;7.046;2022-10-17T11:09:46;6.90;;;2.30;;
5795;SDS011;2924;51.458;7.046;2022-10-17T11:12:32;8.77;;;2.50;;
5795;SDS011;2924;51.458;7.046;2022-10-17T11:26:06;2.90;;;2.40;;
5795;SDS011;2924;51.458;7.046;2022-10-17T11:28:37;6.50;;;2.87;;
5795;SDS011;2924;51.458;7.046;2022-10-17T11:31:04;10.20;;;3.60;;
5795;SDS011;2924;51.458;7.046;2022-10-17T11:33:37;5.77;;;2.63;;
5795;SDS011;2924;51.458;7.046;2022-10-17T11:36:12;9.10;;;3.57;;
5795;SDS011;2924;51.458;7.046;2022-10-17T11:38:51;7.73;;;3.30;;
5795;SDS011;2924;51.458;7.046;2022-10-17T11:41:26;8.23;;;3.30;;
5795;SDS011;2924;51.458;7.046;2022-10-17T11:44:15;8.23;;;3.53;;
5795;SDS011;2924;51.458;7.046;2022-10-17T11:46:43;10.43;;;3.23;;
5795;SDS011;2924;51.458;7.046;2022-10-17T11:49:21;5.87;;;3.20;;
5795;SDS011;2924;51.458;7.046;2022-10-17T11:54:48;16.73;;;3.40;;
5795;SDS011;2924;51.458;7.046;2022-10-17T12:00:10;8.50;;;3.10;;
5795;SDS011;2924;51.458;7.046;2022-10-17T12:02:49;11.30;;;3.50;;
5795;SDS011;2924;51.458;7.046;2022-10-17T12:05:28;11.10;;;3.00;;
5795;SDS011;2924;51.458;7.046;2022-10-17T12:10:43;7.57;;;3.30;;
5795;SDS011;2924;51.458;7.046;2022-10-17T12:16:42;9.90;;;3.00;;
5795;SDS011;2924;51.458;7.046;2022-10-17T12:21:27;10.93;;;3.70;;
5795;SDS011;2924;51.458;7.046;2022-10-17T12:27:38;5.63;;;3.30;;
5795;SDS011;2924;51.458;7.046;2022-10-17T12:30:14;13.53;;;3.43;;
5795;SDS011;2924;51.458;7.046;2022-10-17T12:32:57;7.60;;;3.90;;
5795;SDS011;2924;51.458;7.046;2022-10-17T12:35:27;8.83;;;3.70;;
5795;SDS011;2924;51.458;7.046;2022-10-17T12:43:31;4.30;;;3.60;;
5795;SDS011;2924;51.458;7.046;2022-10-17T12:45:52;11.33;;;4.00;;
5795;SDS011;2924;51.458;7.046;2022-10-17T12:50:59;15.93;;;4.27;;
5795;SDS011;2924;51.458;7.046;2022-10-17T12:56:13;8.67;;;4.00;;
5795;SDS011;2924;51.458;7.046;2022-10-17T12:59:23;8.73;;;4.60;;
5795;SDS011;2924;51.458;7.046;2022-10-17T13:01:51;8.93;;;4.87;;
5795;SDS011;2924;51.458;7.046;2022-10-17T13:04:21;9.60;;;4.50;;
5795;SDS011;2924;51.458;7.046;2022-10-17T13:06:48;14.60;;;5.00;;
5795;SDS011;2924;51.458;7.046;2022-10-17T13:09:25;10.33;;;5.50;;
5795;SDS011;2924;51.458;7.046;2022-10-17T13:11:51;11.90;;;5.57;;
5795;SDS011;2924;51.458;7.046;2022-10-17T13:14:18;8.27;;;4.97;;
5795;SDS011;2924;51.458;7.046;2022-10-17T13:16:53;16.40;;;5.20;;
5795;SDS011;2924;51.458;7.046;2022-10-17T13:19:24;10.43;;;4.60;;
5795;SDS011;2924;51.458;7.046;2022-10-17T13:21:59;8.07;;;4.70;;
5795;SDS011;2924;51.458;7.046;2022-10-17T13:24:28;6.10;;;4.43;;
5795;SDS011;2924;51.458;7.046;2022-10-17T13:26:56;4.67;;;4.23;;
5795;SDS011;2924;51.458;7.046;2022-10-17T13:29:23;9.90;;;4.70;;
5795;SDS011;2924;51.458;7.046;2022-10-17T13:31:59;13.23;;;4.53;;
5795;SDS011;2924;51.458;7.046;2022-10-17T13:34:28;13.43;;;4.53;;
5795;SDS011;2924;51.458;7.046;2022-10-17T13:37:02;12.33;;;4.63;;
5795;SDS011;2924;51.458;7.046;2022-10-17T13:39:37;9.30;;;5.23;;
5795;SDS011;2924;51.458;7.046;2022-10-17T13:42:23;11.33;;;4.50;;
5795;SDS011;2924;51.458;7.046;2022-10-17T13:44:53;8.60;;;4.53;;
5795;SDS011;2924;51.458;7.046;2022-10-17T13:47:29;10.33;;;4.83;;
5795;SDS011;2924;51.458;7.046;2022-10-17T13:50:00;11.77;;;4.33;;
5795;SDS011;2924;51.458;7.046;2022-10-17T13:52:27;10.60;;;5.47;;
5795;SDS011;2924;51.458;7.046;2022-10-17T13:54:54;8.27;;;4.70;;
5795;SDS011;2924;51.458;7.046;2022-10-17T13:57:30;10.83;;;4.10;;
5795;SDS011;2924;51.458;7.046;2022-10-17T14:02:51;7.70;;;4.20;;
5795;SDS011;2924;51.458;7.046;2022-10-17T14:05:17;6.57;;;4.77;;
5795;SDS011;2924;51.458;7.046;2022-10-17T14:07:54;18.07;;;4.60;;
5795;SDS011;2924;51.458;7.046;2022-10-17T14:10:25;4.90;;;4.40;;
5795;SDS011;2924;51.458;7.046;2022-10-17T14:12:56;9.20;;;3.73;;
5795;SDS011;2924;51.458;7.046;2022-10-17T14:15:25;10.83;;;4.03;;
5795;SDS011;2924;51.458;7.046;2022-10-17T14:17:59;12.53;;;3.97;;
5795;SDS011;2924;51.458;7.046;2022-10-17T14:20:28;8.50;;;4.50;;
5795;SDS011;2924;51.458;7.046;2022-10-17T14:22:55;23.40;;;3.87;;
5795;SDS011;2924;51.458;7.046;2022-10-17T14:25:25;9.17;;;4.60;;
5795;SDS011;2924;51.458;7.046;2022-10-17T14:27:54;14.90;;;4.00;;
5795;SDS011;2924;51.458;7.046;2022-10-17T14:31:07;6.83;;;3.40;;
5795;SDS011;2924;51.458;7.046;2022-10-17T14:33:37;11.47;;;3.50;;
5795;SDS011;2924;51.458;7.046;2022-10-17T14:36:11;8.43;;;3.53;;
5795;SDS011;2924;51.458;7.046;2022-10-17T14:38:37;11.47;;;3.10;;
5795;SDS011;2924;51.458;7.046;2022-10-17T14:41:12;7.60;;;3.53;;
5795;SDS011;2924;51.458;7.046;2022-10-17T14:43:42;12.20;;;3.50;;
5795;SDS011;2924;51.458;7.046;2022-10-17T14:46:13;8.13;;;3.17;;
5795;SDS011;2924;51.458;7.046;2022-10-17T14:48:40;5.83;;;3.30;;
5795;SDS011;2924;51.458;7.046;2022-10-17T14:51:10;9.53;;;4.30;;
5795;SDS011;2924;51.458;7.046;2022-10-17T14:53:39;6.77;;;3.50;;
5795;SDS011;2924;51.458;7.046;2022-10-17T14:56:24;6.27;;;3.00;;
5795;SDS011;2924;51.458;7.046;2022-10-17T14:58:52;4.13;;;2.90;;
5795;SDS011;2924;51.458;7.046;2022-10-17T15:01:18;7.70;;;3.30;;
5795;SDS011;2924;51.458;7.046;2022-10-17T15:03:43;12.80;;;3.40;;
5795;SDS011;2924;51.458;7.046;2022-10-17T15:06:19;20.13;;;4.00;;
5795;SDS011;2924;51.458;7.046;2022-10-17T15:08:51;5.60;;;3.30;;
5795;SDS011;2924;51.458;7.046;2022-10-17T15:11:17;6.57;;;3.13;;
5795;SDS011;2924;51.458;7.046;2022-10-17T15:13:43;9.20;;;3.63;;
5795;SDS011;2924;51.458;7.046;2022-10-17T15:16:16;6.73;;;3.90;;
5795;SDS011;2924;51.458;7.046;2022-10-17T15:18:44;6.83;;;3.10;;
5795;SDS011;2924;51.458;7.046;2022-10-17T15:21:11;6.67;;;3.73;;
5795;SDS011;2924;51.458;7.046;2022-10-17T15:23:37;5.13;;;3.37;;
5795;SDS011;2924;51.458;7.046;2022-10-17T15:26:10;16.63;;;4.40;;
5795;SDS011;2924;51.458;7.046;2022-10-17T15:28:41;6.40;;;4.03;;
5795;SDS011;2924;51.458;7.046;2022-10-17T15:31:09;18.93;;;4.53;;
5795;SDS011;2924;51.458;7.046;2022-10-17T15:33:36;11.70;;;3.77;;
5795;SDS011;2924;51.458;7.046;2022-10-17T15:36:01;15.60;;;4.53;;
5795;SDS011;2924;51.458;7.046;2022-10-17T15:38:27;12.00;;;4.80;;
5795;SDS011;2924;51.458;7.046;2022-10-17T15:40:53;13.47;;;6.07;;
5795;SDS011;2924;51.458;7.046;2022-10-17T15:43:19;11.43;;;5.17;;
5795;SDS011;2924;51.458;7.046;2022-10-17T15:45:44;8.87;;;4.70;;
5795;SDS011;2924;51.458;7.046;2022-10-17T15:48:14;6.77;;;4.77;;
5795;SDS011;2924;51.458;7.046;2022-10-17T15:50:49;10.37;;;5.53;;
5795;SDS011;2924;51.458;7.046;2022-10-17T15:53:15;9.43;;;6.40;;
5795;SDS011;2924;51.458;7.046;2022-10-17T15:55:40;12.30;;;5.20;;
5795;SDS011;2924;51.458;7.046;2022-10-17T15:58:09;13.93;;;6.63;;
5795;SDS011;2924;51.458;7.046;2022-10-17T16:00:39;11.07;;;5.90;;
5795;SDS011;2924;51.458;7.046;2022-10-17T16:03:04;14.10;;;5.43;;
5795;SDS011;2924;51.458;7.046;2022-10-17T16:05:30;16.23;;;6.90;;
5795;SDS011;2924;51.458;7.046;2022-10-17T16:07:56;6.90;;;5.70;;
5795;SDS011;2924;51.458;7.046;2022-10-17T16:10:22;25.87;;;13.50;;
5795;SDS011;2924;51.458;7.046;2022-10-17T16:12:49;14.70;;;7.80;;
5795;SDS011;2924;51.458;7.046;2022-10-17T16:15:17;12.90;;;6.30;;
5795;SDS011;2924;51.458;7.046;2022-10-17T16:17:46;9.57;;;5.93;;
5795;SDS011;2924;51.458;7.046;2022-10-17T16:20:13;9.10;;;7.03;;
5795;SDS011;2924;51.458;7.046;2022-10-17T16:22:39;12.33;;;6.83;;
5795;SDS011;2924;51.458;7.046;2022-10-17T16:25:18;10.90;;;6.70;;
5795;SDS011;2924;51.458;7.046;2022-10-17T16:27:49;16.33;;;7.33;;
5795;SDS011;2924;51.458;7.046;2022-10-17T16:30:17;11.27;;;6.93;;
5795;SDS011;2924;51.458;7.046;2022-10-17T16:32:43;11.33;;;6.07;;
5795;SDS011;2924;51.458;7.046;2022-10-17T16:35:10;13.20;;;5.13;;
5795;SDS011;2924;51.458;7.046;2022-10-17T16:37:41;7.13;;;4.33;;
5795;SDS011;2924;51.458;7.046;2022-10-17T16:40:06;7.20;;;4.60;;
5795;SDS011;2924;51.458;7.046;2022-10-17T16:42:32;13.40;;;5.30;;
5795;SDS011;2924;51.458;7.046;2022-10-17T16:44:58;8.13;;;4.60;;
5795;SDS011;2924;51.458;7.046;2022-10-17T16:47:24;10.00;;;4.80;;
5795;SDS011;2924;51.458;7.046;2022-10-17T16:49:49;10.23;;;4.80;;
5795;SDS011;2924;51.458;7.046;2022-10-17T16:52:15;8.93;;;3.60;;
5795;SDS011;2924;51.458;7.046;2022-10-17T16:54:40;8.47;;;4.20;;
5795;SDS011;2924;51.458;7.046;2022-10-17T16:57:06;11.60;;;4.03;;
5795;SDS011;2924;51.458;7.046;2022-10-17T16:59:32;7.77;;;4.00;;